Time;durP1;ratioP1;P1;durP2;ratioP2;P2;SDS_P1;SDS_P2;PMS_P1;PMS_P2;Temp;Humidity;BMP_temperature;BMP_pressure;BME280_temperature;BME280_humidity;BME280_pressure;Samples;Min_cycle;Max_cycle;Signal;HPM_P1;HPM_P2
2023/03/16 00:02:04;;;;;;;10.90;5.50;;;;;;;-0.98;100.00;94125.16;5031630;28;20056;-62
2023/03/16 00:04:36;;;;;;;10.83;5.60;;;;;;;-0.99;100.00;94128.97;5031659;28;20044;-61
2023/03/16 00:07:07;;;;;;;11.02;5.40;;;;;;;-1.01;100.00;94122.03;5031342;28;20046;-63
2023/03/16 00:09:39;;;;;;;12.43;6.53;;;;;;;-0.97;100.00;94126.72;5031783;28;20376;-61
2023/03/16 00:12:15;;;;;;;10.88;5.25;;;;;;;-1.10;100.00;94118.66;5024400;28;20064;-61
2023/03/16 00:14:47;;;;;;;11.23;5.75;;;;;;;-1.03;100.00;94118.06;5011801;28;20038;-61
2023/03/16 00:17:19;;;;;;;11.40;5.60;;;;;;;-1.25;100.00;94122.00;5027444;28;20343;-61
2023/03/16 00:19:50;;;;;;;10.90;5.45;;;;;;;-1.31;100.00;94121.44;5031408;28;20041;-63
2023/03/16 00:22:17;;;;;;;11.38;5.70;;;;;;;-1.22;100.00;94124.03;5030595;28;20649;-61
2023/03/16 00:24:43;;;;;;;11.48;5.60;;;;;;;-1.22;100.00;94124.81;5030160;28;20045;-63
2023/03/16 00:27:13;;;;;;;12.45;5.55;;;;;;;-1.26;100.00;94126.59;5030615;28;20041;-61
2023/03/16 00:29:54;;;;;;;12.43;5.30;;;;;;;-1.30;100.00;94123.00;5030872;28;20414;-62
2023/03/16 00:32:28;;;;;;;9.32;5.22;;;;;;;-1.25;100.00;94127.38;5030418;28;21658;-61
2023/03/16 00:34:54;;;;;;;13.10;5.78;;;;;;;-1.31;100.00;94116.06;5030944;28;20042;-61
2023/03/16 00:37:22;;;;;;;10.75;5.38;;;;;;;-1.31;100.00;94124.13;5031212;28;20049;-63
2023/03/16 00:39:50;;;;;;;9.05;5.10;;;;;;;-1.33;100.00;94120.97;5030554;28;20528;-62
2023/03/16 00:42:18;;;;;;;8.87;4.90;;;;;;;-1.31;100.00;94121.44;5031320;28;20037;-62
2023/03/16 00:44:46;;;;;;;9.70;5.13;;;;;;;-1.48;100.00;94117.03;5031253;28;20045;-62
2023/03/16 00:47:13;;;;;;;10.50;4.72;;;;;;;-1.52;100.00;94112.66;5030426;28;20048;-61
2023/03/16 00:49:42;;;;;;;10.68;5.20;;;;;;;-1.55;100.00;94107.94;5030977;28;20050;-61
2023/03/16 00:52:14;;;;;;;9.90;5.53;;;;;;;-1.70;100.00;94110.16;5020336;28;20038;-61
2023/03/16 00:54:42;;;;;;;10.97;5.03;;;;;;;-1.57;100.00;94110.16;5030817;28;20045;-61
2023/03/16 00:57:11;;;;;;;10.15;4.82;;;;;;;-1.53;100.00;94109.19;5030433;28;20038;-63
2023/03/16 00:59:38;;;;;;;8.43;4.75;;;;;;;-1.55;100.00;94111.44;5029688;28;20430;-62
2023/03/16 01:02:06;;;;;;;8.30;4.88;;;;;;;-1.54;100.00;94098.75;5030366;28;20536;-61
2023/03/16 01:04:35;;;;;;;9.88;5.10;;;;;;;-1.53;100.00;94106.50;5029174;28;20413;-61
2023/03/16 01:07:03;;;;;;;9.80;5.10;;;;;;;-1.60;100.00;94100.88;5030469;28;20099;-61
2023/03/16 01:09:35;;;;;;;9.32;5.07;;;;;;;-1.64;100.00;94108.03;5030671;28;20041;-62
2023/03/16 01:12:05;;;;;;;9.07;4.82;;;;;;;-1.62;100.00;94111.97;5024659;28;20041;-63
2023/03/16 01:14:36;;;;;;;9.82;5.30;;;;;;;-1.59;100.00;94104.34;5011322;28;20037;-64
2023/03/16 01:17:07;;;;;;;11.98;5.65;;;;;;;-1.52;100.00;94101.91;5024854;28;20366;-61
2023/03/16 01:19:35;;;;;;;11.87;5.50;;;;;;;-1.52;100.00;94099.97;5043828;28;20045;-62
2023/03/16 01:22:07;;;;;;;11.45;5.30;;;;;;;-1.52;100.00;94091.13;5029983;28;20044;-63
2023/03/16 01:24:34;;;;;;;11.05;5.38;;;;;;;-1.59;100.00;94098.94;5030221;28;20068;-62
2023/03/16 01:27:03;;;;;;;11.60;5.65;;;;;;;-1.61;100.00;94092.00;5029680;28;20047;-62
2023/03/16 01:29:31;;;;;;;41.92;20.00;;;;;;;-1.63;100.00;94102.31;5029869;28;20445;-61
2023/03/16 01:31:59;;;;;;;18.83;8.40;;;;;;;-1.61;100.00;94104.66;5029434;28;20413;-62
2023/03/16 01:34:26;;;;;;;15.45;7.53;;;;;;;-1.63;100.00;94096.94;5030208;28;20063;-64
2023/03/16 01:36:52;;;;;;;16.13;6.70;;;;;;;-1.62;100.00;94095.81;5029686;28;20041;-62
2023/03/16 01:39:19;;;;;;;11.25;5.63;;;;;;;-1.61;100.00;94086.63;5029957;28;20390;-62
2023/03/16 01:41:46;;;;;;;9.82;5.40;;;;;;;-1.75;100.00;94080.78;5030044;28;20042;-62
2023/03/16 01:44:27;;;;;;;10.40;5.40;;;;;;;-1.86;100.00;94088.47;5028835;28;20604;-62
2023/03/16 01:46:53;;;;;;;9.77;5.00;;;;;;;-1.79;100.00;94084.44;5029380;28;20053;-62
2023/03/16 01:49:28;;;;;;;8.57;4.95;;;;;;;-1.76;100.00;94081.88;5029849;28;20053;-63
2023/03/16 01:52:08;;;;;;;8.80;4.63;;;;;;;-1.77;100.00;94077.63;5028808;28;20045;-64
2023/03/16 01:54:41;;;;;;;11.43;4.90;;;;;;;-1.78;100.00;94077.97;5023117;28;20399;-64
2023/03/16 01:57:15;;;;;;;8.80;4.80;;;;;;;-1.82;100.00;94070.53;5017163;28;20037;-63
2023/03/16 01:59:54;;;;;;;12.20;6.13;;;;;;;-1.88;100.00;94069.19;5028554;28;20035;-62
2023/03/16 02:02:24;;;;;;;13.30;6.82;;;;;;;-1.88;100.00;94071.09;5015467;28;20233;-61
2023/03/16 02:04:55;;;;;;;11.98;6.20;;;;;;;-1.97;100.00;94070.41;5029073;28;20099;-61
2023/03/16 02:07:23;;;;;;;10.45;6.10;;;;;;;-1.97;100.00;94067.69;5041805;28;20052;-62
2023/03/16 02:09:53;;;;;;;10.47;5.80;;;;;;;-2.01;100.00;94071.06;5027719;28;20045;-62
2023/03/16 02:12:20;;;;;;;11.15;5.68;;;;;;;-2.09;100.00;94069.25;5028904;28;20042;-60
2023/03/16 02:14:49;;;;;;;9.30;5.57;;;;;;;-2.04;100.00;94071.72;5028944;28;20037;-58
2023/03/16 02:17:20;;;;;;;9.13;4.90;;;;;;;-2.08;100.00;94070.03;5028111;28;20045;-61
2023/03/16 02:20:10;;;;;;;10.13;5.43;;;;;;;-2.07;100.00;94067.03;5028865;28;20647;-60
2023/03/16 02:22:44;;;;;;;7.87;4.90;;;;;;;-2.04;100.00;94060.19;5024182;28;20037;-60
2023/03/16 02:25:13;;;;;;;10.15;4.40;;;;;;;-1.98;100.00;94058.84;5028800;28;20478;-63
2023/03/16 02:27:50;;;;;;;12.07;4.82;;;;;;;-2.02;100.00;94058.72;5028918;28;20067;-61
2023/03/16 02:30:18;;;;;;;9.93;4.97;;;;;;;-2.01;100.00;94056.84;5028074;28;21654;-62
2023/03/16 02:32:46;;;;;;;10.27;5.40;;;;;;;-1.99;100.00;94049.22;5028981;28;20045;-60
2023/03/16 02:35:13;;;;;;;16.43;9.13;;;;;;;-2.03;100.00;94040.25;5028194;28;20196;-61
2023/03/16 02:37:40;;;;;;;12.63;6.47;;;;;;;-2.07;100.00;94040.13;5028775;28;20052;-62
2023/03/16 02:40:20;;;;;;;9.90;5.80;;;;;;;-2.09;100.00;94049.66;5028602;28;20049;-60
2023/03/16 02:43:02;;;;;;;10.02;4.53;;;;;;;-2.17;100.00;94039.75;5028850;28;20083;-63
2023/03/16 02:45:42;;;;;;;8.23;4.68;;;;;;;-2.17;100.00;94047.81;5027715;28;20410;-62
2023/03/16 02:48:13;;;;;;;7.77;4.40;;;;;;;-2.15;100.00;94046.38;5028531;28;20049;-60
2023/03/16 02:50:46;;;;;;;9.88;4.88;;;;;;;-2.18;100.00;94044.34;5028762;28;20045;-61
2023/03/16 02:53:13;;;;;;;9.65;4.93;;;;;;;-2.20;100.00;94046.59;5027779;28;20861;-61
2023/03/16 02:55:40;;;;;;;9.73;5.05;;;;;;;-2.20;100.00;94038.50;5028637;28;20042;-61
2023/03/16 02:58:07;;;;;;;9.52;5.13;;;;;;;-2.19;100.00;94044.66;5028124;28;20050;-63
2023/03/16 03:00:34;;;;;;;9.53;4.83;;;;;;;-2.23;100.00;94044.56;5028633;28;20399;-62
2023/03/16 03:03:00;;;;;;;9.32;4.90;;;;;;;-2.18;100.00;94040.88;5027162;28;20372;-60
2023/03/16 03:05:27;;;;;;;10.60;5.00;;;;;;;-2.18;100.00;94043.56;5028270;28;20159;-60
2023/03/16 03:07:54;;;;;;;9.85;5.07;;;;;;;-2.22;100.00;94030.78;5028056;28;20634;-62
2023/03/16 03:10:21;;;;;;;8.95;5.22;;;;;;;-2.28;100.00;94029.41;5028616;28;20046;-61
2023/03/16 03:12:48;;;;;;;9.17;5.23;;;;;;;-2.30;100.00;94037.03;5028134;28;20042;-61
2023/03/16 03:15:16;;;;;;;9.88;5.47;;;;;;;-2.24;100.00;94034.91;5028430;28;20037;-60
2023/03/16 03:17:44;;;;;;;11.40;5.57;;;;;;;-2.24;100.00;94042.97;5028393;28;20111;-60
2023/03/16 03:20:18;;;;;;;10.30;5.40;;;;;;;-2.31;100.00;94032.78;5028008;28;20045;-60
2023/03/16 03:22:48;;;;;;;10.30;5.85;;;;;;;-2.37;100.00;94034.09;5028442;28;20038;-61
2023/03/16 03:25:17;;;;;;;10.27;6.13;;;;;;;-2.37;100.00;94034.09;5031543;28;20846;-61
2023/03/16 03:27:45;;;;;;;11.00;6.40;;;;;;;-2.36;100.00;94026.81;5032237;28;20410;-61
2023/03/16 03:30:19;;;;;;;11.13;6.20;;;;;;;-2.39;100.00;94030.16;5031277;28;20286;-61
2023/03/16 03:32:46;;;;;;;12.20;5.60;;;;;;;-2.49;100.00;94032.16;5024698;28;20045;-64
2023/03/16 03:35:14;;;;;;;13.30;6.32;;;;;;;-2.48;100.00;94035.63;5012791;28;20722;-61
2023/03/16 03:37:43;;;;;;;11.77;6.00;;;;;;;-2.48;100.00;94033.72;5030693;28;20413;-61
2023/03/16 03:40:12;;;;;;;11.23;5.72;;;;;;;-2.48;100.00;94036.41;5031303;28;20041;-61
2023/03/16 03:42:40;;;;;;;13.18;6.53;;;;;;;-2.51;100.00;94042.44;5031638;28;20045;-61
2023/03/16 03:45:11;;;;;;;11.77;6.47;;;;;;;-2.50;100.00;94040.53;5031209;28;20061;-62
2023/03/16 03:47:39;;;;;;;11.20;6.25;;;;;;;-2.64;100.00;94046.19;5031511;28;20037;-61
2023/03/16 03:50:07;;;;;;;12.13;5.70;;;;;;;-2.66;100.00;94043.03;5030854;28;20041;-61
2023/03/16 03:52:34;;;;;;;12.48;6.20;;;;;;;-2.62;100.00;94035.88;5031719;28;20471;-61
2023/03/16 03:55:01;;;;;;;12.13;6.10;;;;;;;-2.64;100.00;94035.44;5030986;28;20055;-62
2023/03/16 03:57:27;;;;;;;11.45;5.80;;;;;;;-2.70;100.00;94034.84;5031793;28;20045;-62
2023/03/16 03:59:54;;;;;;;12.13;6.05;;;;;;;-2.73;100.00;94029.38;5030844;28;20095;-61
2023/03/16 04:02:21;;;;;;;11.80;6.10;;;;;;;-2.65;100.00;94025.81;5030323;28;20441;-61
2023/03/16 04:04:48;;;;;;;12.18;6.43;;;;;;;-2.64;100.00;94028.16;5030877;28;20535;-62
2023/03/16 04:07:14;;;;;;;11.75;6.03;;;;;;;-2.82;100.00;94032.91;5029856;28;20041;-63
2023/03/16 04:09:41;;;;;;;14.27;6.60;;;;;;;-2.81;100.00;94025.63;5044424;28;20536;-61
2023/03/16 04:12:09;;;;;;;13.27;6.93;;;;;;;-2.87;100.00;94019.66;5030872;28;20390;-61
2023/03/16 04:14:36;;;;;;;13.57;6.57;;;;;;;-2.95;100.00;94023.19;5031368;28;20440;-61
2023/03/16 04:17:03;;;;;;;54.60;20.52;;;;;;;-2.97;100.00;94022.75;5030496;28;20033;-61
2023/03/16 04:19:30;;;;;;;33.20;12.95;;;;;;;-2.91;100.00;94024.13;5031154;28;20422;-61
2023/03/16 04:21:57;;;;;;;12.25;6.80;;;;;;;-2.88;100.00;94028.03;5030424;28;20463;-63
2023/03/16 04:24:23;;;;;;;12.75;6.55;;;;;;;-2.89;100.00;94021.88;5031044;28;20075;-62
2023/03/16 04:26:50;;;;;;;12.47;6.00;;;;;;;-2.91;100.00;94023.34;5030704;28;20506;-61
2023/03/16 04:29:17;;;;;;;13.65;6.22;;;;;;;-2.92;100.00;94022.53;5028932;28;20049;-61
2023/03/16 04:31:45;;;;;;;13.90;6.82;;;;;;;-2.85;100.00;94019.34;5028937;28;20037;-65
2023/03/16 04:34:12;;;;;;;11.98;6.30;;;;;;;-2.87;100.00;94021.56;5011406;28;20384;-61
2023/03/16 04:36:40;;;;;;;11.40;6.38;;;;;;;-2.90;100.00;94022.97;5017498;28;20045;-61
2023/03/16 04:39:07;;;;;;;12.77;6.40;;;;;;;-2.85;100.00;94013.97;5030859;28;20049;-62
2023/03/16 04:41:34;;;;;;;13.93;6.45;;;;;;;-2.95;100.00;94004.41;5030969;28;20038;-62
2023/03/16 04:44:01;;;;;;;14.07;6.68;;;;;;;-2.96;100.00;94008.19;5030525;28;20033;-64
2023/03/16 04:46:28;;;;;;;10.95;6.93;;;;;;;-2.86;100.00;94009.69;5030733;28;20054;-61
2023/03/16 04:48:57;;;;;;;12.70;7.22;;;;;;;-2.85;100.00;94000.53;5030462;28;20037;-62
2023/03/16 04:51:25;;;;;;;16.80;8.07;;;;;;;-2.84;100.00;94008.28;5030727;28;20044;-62
2023/03/16 04:53:52;;;;;;;14.05;7.20;;;;;;;-2.85;100.00;93992.47;5038124;28;20037;-60
2023/03/16 04:56:19;;;;;;;19.40;9.80;;;;;;;-2.87;100.00;93989.34;5036148;28;20413;-60
2023/03/16 04:58:47;;;;;;;16.77;8.60;;;;;;;-2.93;100.00;93991.44;5030848;28;20039;-61
2023/03/16 05:01:15;;;;;;;15.00;8.20;;;;;;;-3.19;100.00;93994.31;5029755;28;21819;-62
2023/03/16 05:03:43;;;;;;;15.33;8.87;;;;;;;-3.14;100.00;93996.00;5030829;28;20254;-63
2023/03/16 05:06:11;;;;;;;20.80;11.05;;;;;;;-3.04;100.00;94001.78;5030329;28;20045;-61
2023/03/16 05:08:38;;;;;;;18.10;10.27;;;;;;;-3.04;100.00;93990.25;5030434;28;20261;-62
2023/03/16 05:11:05;;;;;;;17.42;9.05;;;;;;;-3.08;100.00;93994.69;5029942;28;20060;-60
2023/03/16 05:13:32;;;;;;;17.85;9.52;;;;;;;-3.11;100.00;93993.47;5043801;28;20043;-61
2023/03/16 05:15:58;;;;;;;16.47;8.50;;;;;;;-3.06;100.00;93989.78;5029809;28;20041;-61
2023/03/16 05:18:25;;;;;;;17.42;8.48;;;;;;;-3.10;100.00;93991.56;5030146;28;20177;-61
2023/03/16 05:20:57;;;;;;;14.75;8.48;;;;;;;-3.14;100.00;93991.44;5028822;28;20087;-61
2023/03/16 05:23:24;;;;;;;14.52;7.75;;;;;;;-3.14;100.00;93991.44;5030275;28;20064;-61
2023/03/16 05:25:50;;;;;;;16.23;8.10;;;;;;;-3.27;100.00;93990.56;5028617;28;20045;-61
2023/03/16 05:28:18;;;;;;;16.10;8.13;;;;;;;-3.16;100.00;93984.81;5030212;28;20049;-63
2023/03/16 05:30:44;;;;;;;17.88;9.30;;;;;;;-3.11;100.00;93982.72;5030125;28;20034;-63
2023/03/16 05:33:12;;;;;;;34.42;13.52;;;;;;;-3.18;100.00;93982.44;5024350;28;20052;-61
2023/03/16 05:35:39;;;;;;;82.68;24.88;;;;;;;-3.09;100.00;93985.09;5013796;28;20156;-61
2023/03/16 05:38:07;;;;;;;37.50;15.63;;;;;;;-3.05;100.00;93984.09;5029075;28;20049;-61
2023/03/16 05:40:36;;;;;;;28.80;12.50;;;;;;;-2.97;100.00;93985.16;5029857;28;20044;-62
2023/03/16 05:43:03;;;;;;;19.67;9.98;;;;;;;-3.08;100.00;93981.28;5029398;28;20047;-61
2023/03/16 05:45:30;;;;;;;18.15;9.00;;;;;;;-3.04;100.00;93990.25;5029543;28;20076;-60
2023/03/16 05:47:57;;;;;;;18.73;8.85;;;;;;;-3.01;100.00;93986.91;5029148;28;20037;-63
2023/03/16 05:50:23;;;;;;;18.58;9.88;;;;;;;-2.92;100.00;93984.16;5029725;28;20037;-61
2023/03/16 05:52:50;;;;;;;18.70;9.63;;;;;;;-2.88;100.00;93983.19;5029340;28;20114;-60
2023/03/16 05:55:17;;;;;;;16.48;9.13;;;;;;;-2.86;100.00;93978.28;5029774;28;20393;-60
2023/03/16 05:57:44;;;;;;;15.30;8.88;;;;;;;-2.91;100.00;93981.16;5028189;28;20045;-63
2023/03/16 06:00:14;;;;;;;16.10;8.05;;;;;;;-2.85;100.00;93976.38;5028977;28;20397;-62
2023/03/16 06:02:46;;;;;;;18.13;9.48;;;;;;;-2.78;100.00;93975.81;5029345;28;20044;-62
2023/03/16 06:05:15;;;;;;;18.17;9.67;;;;;;;-2.70;100.00;93983.81;5028892;28;20687;-63
2023/03/16 06:07:42;;;;;;;19.40;9.55;;;;;;;-2.58;100.00;93982.28;5027962;28;20236;-63
2023/03/16 06:10:10;;;;;;;17.50;9.43;;;;;;;-2.53;100.00;93977.50;5028818;28;20094;-62
2023/03/16 06:12:37;;;;;;;21.08;9.63;;;;;;;-2.65;100.00;93977.47;5029363;28;20044;-62
2023/03/16 06:15:08;;;;;;;19.80;10.63;;;;;;;-2.48;100.00;93985.34;5028473;28;20102;-62
2023/03/16 06:17:35;;;;;;;19.63;9.30;;;;;;;-2.45;100.00;93973.94;5040362;28;20036;-62
2023/03/16 06:20:09;;;;;;;20.80;9.98;;;;;;;-2.43;100.00;93977.09;5030419;28;20048;-62
2023/03/16 06:22:41;;;;;;;19.17;9.75;;;;;;;-2.25;100.00;93976.91;5027795;28;20135;-62
2023/03/16 06:25:09;;;;;;;18.58;8.80;;;;;;;-2.18;100.00;93977.13;5027383;28;20053;-62
2023/03/16 06:27:36;;;;;;;18.88;9.32;;;;;;;-2.26;100.00;93969.94;5028991;28;20041;-61
2023/03/16 06:30:05;;;;;;;16.53;8.33;;;;;;;-2.25;100.00;93975.00;5028143;28;20398;-62
2023/03/16 06:32:32;;;;;;;17.60;8.57;;;;;;;-2.30;100.00;93977.09;5028810;28;20095;-62
2023/03/16 06:35:01;;;;;;;19.45;8.85;;;;;;;-2.41;100.00;93982.91;5030178;28;20067;-62
2023/03/16 06:37:29;;;;;;;17.45;8.95;;;;;;;-2.47;100.00;93986.16;5039671;28;20041;-61
2023/03/16 06:39:55;;;;;;;17.92;9.32;;;;;;;-2.24;100.00;93983.84;5028079;28;20379;-61
2023/03/16 06:42:22;;;;;;;19.33;8.90;;;;;;;-2.18;100.00;93987.88;5027606;28;20033;-63
2023/03/16 06:44:50;;;;;;;20.50;10.23;;;;;;;-2.15;100.00;93986.44;5028199;28;20045;-61
2023/03/16 06:47:16;;;;;;;20.58;10.27;;;;;;;-1.89;100.00;93992.31;5028474;28;20098;-61
2023/03/16 06:49:43;;;;;;;23.15;11.45;;;;;;;-1.76;100.00;93992.34;5028441;28;20046;-61
2023/03/16 06:52:12;;;;;;;25.20;12.23;;;;;;;-1.77;100.00;93993.44;5022393;28;20094;-65
2023/03/16 06:54:40;;;;;;;19.43;9.43;;;;;;;-1.69;100.00;93992.53;5028526;28;20094;-62
2023/03/16 06:57:07;;;;;;;19.42;10.15;;;;;;;-1.53;100.00;93998.03;5027618;28;20058;-64
2023/03/16 06:59:34;;;;;;;18.58;9.80;;;;;;;-1.45;100.00;94000.63;5028449;28;20049;-62
2023/03/16 07:02:00;;;;;;;22.27;10.32;;;;;;;-1.29;100.00;93994.56;5026768;28;20087;-63
2023/03/16 07:04:27;;;;;;;20.23;10.50;;;;;;;-1.05;100.00;93996.44;5028626;28;20495;-62
2023/03/16 07:06:54;;;;;;;21.63;10.77;;;;;;;-0.87;100.00;93996.94;5019699;28;20052;-61
2023/03/16 07:09:21;;;;;;;22.25;11.05;;;;;;;-0.69;100.00;93997.47;5015174;28;20037;-63
2023/03/16 07:11:47;;;;;;;21.77;11.23;;;;;;;-0.63;100.00;93994.19;5027534;28;20135;-63
2023/03/16 07:14:14;;;;;;;19.08;9.75;;;;;;;-0.58;100.00;94006.66;5027740;28;20305;-63
2023/03/16 07:16:41;;;;;;;23.67;10.77;;;;;;;-0.69;100.00;94005.53;5028000;28;20485;-62
2023/03/16 07:19:07;;;;;;;22.50;11.03;;;;;;;-0.41;100.00;94003.63;5025968;28;20067;-59
2023/03/16 07:21:38;;;;;;;22.58;10.57;;;;;;;-0.24;100.00;94001.78;5027830;28;20046;-59
2023/03/16 07:24:07;;;;;;;20.98;11.60;;;;;;;-0.17;100.00;94001.19;5026840;28;20426;-66
2023/03/16 07:26:34;;;;;;;21.35;11.52;;;;;;;0.26;100.00;94004.97;5028156;28;20046;-59
2023/03/16 07:29:03;;;;;;;21.40;11.18;;;;;;;0.47;100.00;94002.81;5027407;28;20409;-59
2023/03/16 07:31:31;;;;;;;23.13;11.07;;;;;;;0.50;100.00;94002.09;5027718;28;20375;-59
2023/03/16 07:33:58;;;;;;;21.92;10.95;;;;;;;1.09;100.00;93999.59;5027624;28;20056;-59
2023/03/16 07:36:25;;;;;;;18.33;10.38;;;;;;;1.19;100.00;93996.34;5027673;28;20087;-60
2023/03/16 07:38:52;;;;;;;17.50;9.70;;;;;;;3.62;100.00;93998.06;5027160;28;20045;-60
2023/03/16 07:41:18;;;;;;;19.17;8.27;;;;;;;5.97;93.52;93990.22;5025814;28;20033;-63
2023/03/16 07:43:45;;;;;;;16.37;9.33;;;;;;;7.97;84.09;93990.53;5027850;28;20673;-63
2023/03/16 07:46:12;;;;;;;15.95;9.77;;;;;;;10.09;67.07;93975.91;5025777;28;20112;-61
2023/03/16 07:48:41;;;;;;;18.48;9.98;;;;;;;10.64;57.32;93993.22;5027165;28;20056;-61
2023/03/16 07:51:10;;;;;;;16.33;9.68;;;;;;;11.51;54.28;93987.94;5026840;28;20044;-61
2023/03/16 07:53:37;;;;;;;14.95;10.18;;;;;;;11.92;54.17;93983.28;5027694;28;20397;-61
2023/03/16 07:56:04;;;;;;;13.50;9.37;;;;;;;12.46;49.76;93985.72;5027445;28;20045;-62
2023/03/16 07:58:31;;;;;;;14.70;9.77;;;;;;;12.26;49.88;93985.75;5040622;28;20041;-63
2023/03/16 08:00:59;;;;;;;12.30;8.90;;;;;;;13.15;47.03;93984.97;5027348;28;20045;-61
2023/03/16 08:03:27;;;;;;;12.88;8.43;;;;;;;12.84;46.85;93987.25;5027656;28;20056;-62
2023/03/16 08:05:54;;;;;;;12.10;8.88;;;;;;;15.11;43.99;93986.31;5027239;28;20102;-65
2023/03/16 08:08:22;;;;;;;14.37;8.23;;;;;;;16.57;38.86;93984.50;5026177;28;20099;-63
2023/03/16 08:10:51;;;;;;;10.95;7.80;;;;;;;15.40;40.65;93976.31;5030137;28;20087;-63
2023/03/16 08:13:18;;;;;;;11.20;7.32;;;;;;;16.81;37.67;93978.50;5030926;28;20037;-64
2023/03/16 08:15:47;;;;;;;11.95;7.05;;;;;;;17.00;37.28;93969.03;5029763;28;20068;-63
2023/03/16 08:18:13;;;;;;;8.57;6.05;;;;;;;15.28;36.74;93978.66;5018447;28;21476;-62
2023/03/16 08:20:40;;;;;;;9.90;6.50;;;;;;;15.40;38.64;93971.56;5026413;28;20308;-60
2023/03/16 08:23:07;;;;;;;7.07;4.88;;;;;;;18.19;32.23;93964.97;5026182;28;20052;-62
2023/03/16 08:25:34;;;;;;;8.48;5.18;;;;;;;19.52;30.23;93953.31;5031006;28;20037;-63
2023/03/16 08:28:01;;;;;;;8.88;6.00;;;;;;;19.25;30.19;93949.41;5030372;28;20063;-61
2023/03/16 08:30:29;;;;;;;11.80;5.60;;;;;;;20.01;29.02;93951.28;5030379;28;20042;-62
2023/03/16 08:32:56;;;;;;;7.60;5.13;;;;;;;17.31;30.72;93951.59;5030209;28;20034;-62
2023/03/16 08:35:23;;;;;;;7.00;4.78;;;;;;;17.60;31.40;93951.19;5030645;28;20037;-61
2023/03/16 08:37:50;;;;;;;7.20;5.00;;;;;;;18.06;29.58;93954.00;5030519;28;20049;-61
2023/03/16 08:40:17;;;;;;;7.25;5.10;;;;;;;17.09;31.28;93948.91;5041382;28;20068;-63
2023/03/16 08:42:44;;;;;;;8.15;5.05;;;;;;;19.34;28.58;93934.69;5030321;28;20393;-62
2023/03/16 08:45:11;;;;;;;8.57;5.03;;;;;;;19.50;28.63;93925.16;5028480;28;20163;-62
2023/03/16 08:47:40;;;;;;;8.93;4.60;;;;;;;20.64;26.45;93920.53;5030251;28;20048;-62
2023/03/16 08:50:09;;;;;;;7.28;4.25;;;;;;;19.98;27.23;93916.81;5028681;28;20179;-62
2023/03/16 08:52:36;;;;;;;5.82;3.70;;;;;;;16.43;28.71;93924.09;5030485;28;20042;-62
2023/03/16 08:55:04;;;;;;;6.00;3.50;;;;;;;15.62;30.80;93924.59;5029915;28;20496;-61
2023/03/16 08:57:32;;;;;;;4.90;3.30;;;;;;;14.04;32.22;93937.00;5030550;28;20041;-62
2023/03/16 08:59:59;;;;;;;5.15;3.35;;;;;;;16.05;30.29;93923.09;5029572;28;20471;-61
2023/03/16 09:02:26;;;;;;;5.18;3.42;;;;;;;14.60;31.86;93928.28;5029835;28;20050;-61
2023/03/16 09:04:53;;;;;;;6.32;3.45;;;;;;;15.11;31.40;93922.75;5042938;28;20063;-62
2023/03/16 09:07:20;;;;;;;5.30;3.10;;;;;;;13.15;33.41;93927.09;5029702;28;20465;-62
2023/03/16 09:09:47;;;;;;;6.20;3.30;;;;;;;11.92;35.61;93922.78;5029501;28;20115;-59
2023/03/16 09:12:14;;;;;;;5.90;3.55;;;;;;;11.82;36.20;93918.25;5029879;28;20055;-60
2023/03/16 09:14:40;;;;;;;6.15;3.47;;;;;;;12.76;34.79;93917.81;5029968;28;20060;-62
2023/03/16 09:17:07;;;;;;;6.18;3.40;;;;;;;12.44;35.54;93924.84;5026179;28;20049;-61
2023/03/16 09:19:34;;;;;;;5.88;3.83;;;;;;;11.65;36.43;93920.94;5010336;28;20042;-62
2023/03/16 09:22:20;;;;;;;13.47;3.60;;;;;;;13.68;35.97;93927.75;5021680;28;20678;-63
2023/03/16 09:24:47;;;;;;;5.72;3.60;;;;;;;16.48;31.18;93916.00;5029837;28;20047;-59
2023/03/16 09:27:15;;;;;;;6.05;3.33;;;;;;;18.00;28.88;93919.00;5030163;28;20459;-63
2023/03/16 09:29:44;;;;;;;7.55;3.83;;;;;;;19.70;27.81;93914.19;5029894;28;20111;-62
2023/03/16 09:32:11;;;;;;;5.97;3.60;;;;;;;17.92;28.92;93924.84;5042999;28;20509;-62
2023/03/16 09:34:39;;;;;;;5.80;3.23;;;;;;;19.23;26.73;93923.31;5017151;28;20033;-61
2023/03/16 09:37:05;;;;;;;4.47;3.13;;;;;;;16.28;29.17;93924.66;5039375;28;20044;-61
2023/03/16 09:39:32;;;;;;;8.07;3.63;;;;;;;16.71;29.29;93919.47;5031533;28;20045;-61
2023/03/16 09:42:20;;;;;;;6.38;3.25;;;;;;;20.06;26.58;93919.97;5029405;28;20410;-63
2023/03/16 09:44:50;;;;;;;5.15;3.10;;;;;;;19.42;25.60;93926.75;5029101;28;20461;-61
2023/03/16 09:47:25;;;;;;;4.63;2.60;;;;;;;19.30;25.27;93914.63;5029669;28;20037;-61
2023/03/16 09:50:00;;;;;;;4.55;2.63;;;;;;;20.41;23.77;93922.91;5029224;28;20148;-63
2023/03/16 09:52:43;;;;;;;3.83;2.53;;;;;;;18.44;24.65;93933.28;5029799;28;20342;-63
2023/03/16 09:55:30;;;;;;;4.43;2.80;;;;;;;12.95;33.39;93936.22;5015710;28;20344;-61
2023/03/16 09:57:58;;;;;;;4.68;3.05;;;;;;;19.29;25.65;93930.53;5026860;28;20128;-61
2023/03/16 10:00:33;;;;;;;6.50;3.03;;;;;;;19.34;24.56;93918.75;5029365;28;20406;-61
2023/03/16 10:03:27;;;;;;;5.10;2.70;;;;;;;19.74;24.25;93908.47;5029122;28;20041;-61
2023/03/16 10:06:02;;;;;;;16.23;3.00;;;;;;;21.21;21.76;93908.22;5028934;28;20048;-63
2023/03/16 10:08:39;;;;;;;4.97;2.38;;;;;;;21.32;21.49;93903.56;5029565;28;20037;-62
2023/03/16 10:11:15;;;;;;;6.03;2.22;;;;;;;20.12;23.67;93899.34;5028877;28;20106;-62
2023/03/16 10:13:53;;;;;;;3.87;2.30;;;;;;;18.38;23.92;93901.06;5027954;28;20038;-62
2023/03/16 10:16:29;;;;;;;3.50;2.30;;;;;;;17.11;25.23;93902.84;5028158;28;21424;-63
2023/03/16 10:19:18;;;;;;;3.90;2.10;;;;;;;18.34;24.32;93904.75;5028769;28;20058;-63
2023/03/16 10:21:46;;;;;;;4.32;1.85;;;;;;;15.40;27.67;93896.13;5017664;28;20494;-62
2023/03/16 10:24:44;;;;;;;3.97;2.25;;;;;;;15.27;27.26;93891.41;5028154;28;21790;-61
2023/03/16 10:27:19;;;;;;;5.03;2.03;;;;;;;16.81;26.23;93884.25;5028771;28;20050;-62
2023/03/16 10:29:46;;;;;;;3.55;2.22;;;;;;;15.78;26.37;93874.66;5028860;28;20052;-62
2023/03/16 10:32:16;;;;;;;3.30;2.10;;;;;;;16.17;26.33;93885.50;5027991;28;20394;-63
2023/03/16 10:34:48;;;;;;;3.42;2.30;;;;;;;15.47;26.76;93880.03;5029100;28;20044;-64
2023/03/16 10:37:14;;;;;;;4.82;2.33;;;;;;;18.65;23.75;93869.63;5027975;28;20689;-61
2023/03/16 10:39:44;;;;;;;3.67;2.20;;;;;;;16.71;24.45;93881.44;5029016;28;20122;-62
2023/03/16 10:42:19;;;;;;;3.70;2.38;;;;;;;17.14;26.02;93882.53;5028121;28;20044;-62
2023/03/16 10:44:47;;;;;;;4.75;2.53;;;;;;;15.80;26.01;93888.03;5028948;28;20052;-64
2023/03/16 10:47:22;;;;;;;4.38;2.10;;;;;;;17.73;24.56;93876.13;5027948;28;21771;-64
2023/03/16 10:49:50;;;;;;;3.47;2.28;;;;;;;15.59;26.28;93889.53;5028332;28;20037;-63
2023/03/16 10:52:28;;;;;;;3.40;2.30;;;;;;;15.66;27.13;93871.91;5028823;28;20041;-64
2023/03/16 10:55:00;;;;;;;6.07;3.50;;;;;;;17.93;24.83;93862.56;5028472;28;20042;-63
2023/03/16 10:57:34;;;;;;;4.20;2.80;;;;;;;16.71;25.61;93867.59;5028590;28;20079;-62
2023/03/16 11:00:29;;;;;;;4.95;2.38;;;;;;;15.54;26.07;93863.22;5028191;28;20045;-63
2023/03/16 11:02:58;;;;;;;3.45;2.38;;;;;;;16.53;25.26;93861.97;5026996;28;20049;-61
2023/03/16 11:05:31;;;;;;;3.50;2.50;;;;;;;16.53;24.97;93848.13;5028778;28;20042;-61
2023/03/16 11:08:12;;;;;;;4.95;2.83;;;;;;;17.47;25.00;93848.66;5015160;28;20238;-63
2023/03/16 11:10:41;;;;;;;3.90;2.70;;;;;;;16.05;26.88;93864.97;5041849;28;20102;-61
2023/03/16 11:13:25;;;;;;;4.43;2.88;;;;;;;15.44;27.44;93874.66;5026416;28;21670;-61
2023/03/16 11:16:00;;;;;;;4.65;3.00;;;;;;;14.60;28.34;93859.25;5026757;28;20056;-63
2023/03/16 11:18:35;;;;;;;4.47;2.93;;;;;;;15.33;27.78;93861.19;5028658;28;20590;-63
2023/03/16 11:21:11;;;;;;;5.07;3.58;;;;;;;14.21;28.82;93871.47;5027830;28;20045;-62
2023/03/16 11:23:43;;;;;;;4.95;3.63;;;;;;;17.28;27.03;93863.75;5028627;28;20049;-62
2023/03/16 11:26:20;;;;;;;5.45;3.40;;;;;;;15.22;28.40;93853.25;5027966;28;20048;-63
2023/03/16 11:28:53;;;;;;;6.05;3.70;;;;;;;15.67;28.58;93849.31;5028457;28;20044;-63
2023/03/16 11:31:38;;;;;;;5.27;3.07;;;;;;;16.31;27.58;93848.97;5027477;28;20181;-62
2023/03/16 11:34:14;;;;;;;4.55;3.30;;;;;;;16.00;27.29;93846.19;5027841;28;20057;-64